Time;durP1;ratioP1;P1;durP2;ratioP2;P2;SDS_P1;SDS_P2;PMS_P1;PMS_P2;Temp;Humidity;BMP_temperature;BMP_pressure;BME280_temperature;BME280_humidity;BME280_pressure;Samples;Min_cycle;Max_cycle;Signal;HPM_P1;HPM_P2
2022/01/23 00:00:35;;;;;;;2.35;1.50;;;15.60;98.60;;;;;;2012598;28;20161;-74
2022/01/23 00:01:40;;;;;;;2.22;1.50;;;15.60;98.70;;;;;;2012667;28;20263;-74
2022/01/23 00:02:39;;;;;;;2.10;1.63;;;15.60;98.50;;;;;;2013239;28;20149;-73
2022/01/23 00:03:44;;;;;;;2.63;1.63;;;15.60;98.60;;;;;;2013182;28;20175;-73
2022/01/23 00:04:44;;;;;;;2.30;1.50;;;15.70;98.80;;;;;;2013106;28;20153;-73
2022/01/23 00:05:48;;;;;;;2.28;1.40;;;15.70;98.70;;;;;;2012686;28;20172;-72
2022/01/23 00:06:48;;;;;;;2.88;1.67;;;15.70;98.50;;;;;;2013065;28;20230;-72
2022/01/23 00:07:46;;;;;;;3.67;1.30;;;15.70;98.50;;;;;;2013042;28;20165;-73
2022/01/23 00:08:45;;;;;;;2.40;1.60;;;15.70;98.50;;;;;;2013093;28;20165;-73
2022/01/23 00:09:43;;;;;;;1.73;1.40;;;15.70;98.50;;;;;;2013105;28;20169;-74
2022/01/23 00:10:42;;;;;;;2.93;1.50;;;15.70;98.30;;;;;;2012868;28;20172;-74
2022/01/23 00:11:48;;;;;;;3.50;2.97;;;15.60;98.40;;;;;;2013064;28;20172;-74
2022/01/23 00:12:52;;;;;;;2.90;1.90;;;15.60;98.30;;;;;;2013114;28;20463;-73
2022/01/23 00:17:34;;;;;;;2.78;2.20;;;15.60;98.50;;;;;;2013014;28;20208;-73
2022/01/23 00:18:33;;;;;;;4.57;1.80;;;15.60;98.60;;;;;;2013012;28;20230;-73
2022/01/23 00:19:32;;;;;;;3.60;2.10;;;15.60;98.70;;;;;;2013021;28;20250;-74
2022/01/23 00:20:31;;;;;;;3.30;1.92;;;15.60;98.70;;;;;;2012348;28;20645;-74
2022/01/23 00:21:31;;;;;;;2.70;1.83;;;15.60;98.70;;;;;;2004303;28;20187;-74
2022/01/23 00:22:39;;;;;;;3.33;2.05;;;15.60;98.70;;;;;;2011934;28;20410;-74
2022/01/23 00:31:04;;;;;;;1.77;1.60;;;15.70;98.90;;;;;;2013070;28;20164;-74
2022/01/23 00:32:02;;;;;;;2.47;2.07;;;15.60;98.70;;;;;;2012996;28;20566;-74
2022/01/23 00:33:03;;;;;;;2.67;2.00;;;15.70;98.90;;;;;;2012966;28;20658;-73
2022/01/23 00:34:02;;;;;;;4.72;2.03;;;15.70;98.90;;;;;;2012889;28;20619;-74
2022/01/23 00:35:00;;;;;;;1.67;1.57;;;15.80;98.80;;;;;;2012930;28;20211;-74
2022/01/23 00:36:02;;;;;;;2.57;1.73;;;15.70;98.70;;;;;;2012855;28;20266;-74
2022/01/23 00:37:01;;;;;;;2.50;1.85;;;15.80;98.80;;;;;;2012889;28;20202;-74
2022/01/23 00:38:00;;;;;;;1.87;1.67;;;15.70;98.80;;;;;;2013069;28;20184;-74
2022/01/23 00:38:59;;;;;;;1.85;1.65;;;15.80;98.80;;;;;;2012712;28;20176;-74
2022/01/23 00:39:57;;;;;;;1.70;1.60;;;15.80;98.80;;;;;;2012870;28;20168;-74
2022/01/23 00:40:56;;;;;;;1.90;1.70;;;15.80;98.80;;;;;;2012797;28;20173;-74
2022/01/23 00:41:54;;;;;;;4.43;2.17;;;15.80;98.80;;;;;;2012888;28;20164;-73
2022/01/23 00:42:54;;;;;;;2.87;1.90;;;15.80;98.70;;;;;;2012793;28;20181;-75
2022/01/23 00:43:54;;;;;;;2.80;1.80;;;15.80;98.80;;;;;;2012877;28;20533;-73
2022/01/23 00:45:00;;;;;;;4.75;2.10;;;15.80;98.80;;;;;;2012799;28;20213;-73
2022/01/23 00:47:19;;;;;;;3.63;1.80;;;15.80;98.80;;;;;;2012777;28;20188;-73
2022/01/23 00:48:21;;;;;;;2.10;1.90;;;15.80;98.70;;;;;;2004225;28;20188;-73
2022/01/23 00:49:25;;;;;;;3.38;1.65;;;15.80;98.60;;;;;;2004201;28;20209;-73
2022/01/23 00:50:24;;;;;;;3.35;2.08;;;15.80;98.70;;;;;;2019833;28;20167;-75
2022/01/23 00:51:29;;;;;;;2.50;1.87;;;15.80;98.70;;;;;;2012629;28;20188;-74
2022/01/23 00:52:27;;;;;;;1.92;1.73;;;15.80;98.70;;;;;;2012618;28;20411;-74
2022/01/23 00:53:26;;;;;;;4.17;1.93;;;15.80;98.70;;;;;;2012702;28;20191;-74
2022/01/23 00:54:26;;;;;;;2.13;1.90;;;15.80;98.70;;;;;;2012188;28;20176;-73
2022/01/23 00:55:25;;;;;;;1.70;1.60;;;15.80;98.60;;;;;;2012260;28;20629;-73
2022/01/23 00:56:25;;;;;;;2.90;2.10;;;15.80;98.70;;;;;;2012652;28;20297;-72
2022/01/23 00:57:24;;;;;;;3.15;1.90;;;15.80;98.70;;;;;;2012920;28;20227;-73
2022/01/23 00:58:23;;;;;;;3.10;1.77;;;15.70;98.60;;;;;;2012956;28;20219;-73
2022/01/23 00:59:21;;;;;;;4.03;1.83;;;15.80;98.60;;;;;;2012807;28;20204;-73
2022/01/23 01:00:20;;;;;;;2.70;1.87;;;15.80;98.60;;;;;;2012910;28;20271;-73
2022/01/23 01:01:19;;;;;;;3.30;1.93;;;15.90;98.70;;;;;;2013151;28;20188;-73
2022/01/23 01:02:17;;;;;;;6.03;2.10;;;15.80;98.60;;;;;;2012370;28;20647;-73
2022/01/23 01:03:16;;;;;;;4.30;2.13;;;15.80;98.50;;;;;;2012541;28;20172;-73
2022/01/23 01:04:14;;;;;;;5.20;1.90;;;15.80;98.50;;;;;;2012744;28;20220;-72
2022/01/23 01:05:13;;;;;;;3.57;1.77;;;15.80;98.50;;;;;;2012533;28;20184;-73
2022/01/23 01:06:13;;;;;;;2.57;1.70;;;15.90;98.50;;;;;;2012850;28;20172;-74
2022/01/23 01:07:12;;;;;;;2.00;1.50;;;15.80;98.50;;;;;;2012708;28;20179;-74
2022/01/23 01:08:10;;;;;;;2.57;1.53;;;15.80;98.50;;;;;;2012500;28;20188;-74
2022/01/23 01:09:12;;;;;;;1.90;1.73;;;15.80;98.40;;;;;;2011771;28;20211;-74
2022/01/23 01:10:19;;;;;;;7.78;2.22;;;15.90;98.50;;;;;;2011803;28;20172;-74
2022/01/23 01:12:37;;;;;;;2.75;2.00;;;15.80;98.40;;;;;;2013074;28;20161;-74
2022/01/23 01:16:41;;;;;;;4.05;1.88;;;15.90;98.50;;;;;;2012611;28;20164;-74
2022/01/23 01:30:08;;;;;;;2.60;1.30;;;15.80;98.40;;;;;;2012125;28;20192;-73
2022/01/23 01:32:01;;;;;;;2.00;1.90;;;15.90;98.50;;;;;;2017914;28;20164;-73
2022/01/23 01:33:28;;;;;;;3.47;1.35;;;15.90;98.40;;;;;;2018469;28;20566;-74
2022/01/23 01:35:01;;;;;;;2.30;1.55;;;15.90;98.40;;;;;;2015254;28;20172;-74
2022/01/23 01:35:56;;;;;;;2.17;1.60;;;15.90;98.40;;;;;;2018883;28;20192;-74
2022/01/23 01:36:56;;;;;;;2.17;1.38;;;15.90;98.30;;;;;;2019523;28;20238;-73
2022/01/23 01:37:56;;;;;;;3.45;1.70;;;15.90;98.40;;;;;;2018880;28;20172;-75
2022/01/23 01:38:54;;;;;;;1.97;1.60;;;15.90;98.30;;;;;;2018010;28;20239;-74
2022/01/23 01:39:55;;;;;;;3.10;1.70;;;15.90;98.40;;;;;;2019980;28;20455;-75
2022/01/23 01:40:54;;;;;;;2.08;1.50;;;15.90;98.40;;;;;;2019465;28;20177;-72
2022/01/23 01:41:54;;;;;;;1.80;1.50;;;16.00;98.50;;;;;;2015431;28;20183;-73
2022/01/23 01:42:54;;;;;;;2.80;1.60;;;16.00;98.40;;;;;;2013034;28;20165;-73
2022/01/23 01:43:54;;;;;;;2.63;1.60;;;16.00;98.40;;;;;;2013389;28;20169;-74
2022/01/23 01:44:53;;;;;;;2.15;1.83;;;16.00;98.30;;;;;;2012341;28;20530;-74
2022/01/23 01:45:53;;;;;;;1.70;1.33;;;16.00;98.40;;;;;;2012762;28;20175;-73
2022/01/23 01:46:53;;;;;;;1.45;1.30;;;16.00;98.40;;;;;;2015124;28;20191;-73
2022/01/23 01:47:56;;;;;;;2.63;1.50;;;16.00;98.40;;;;;;2014525;28;20180;-73
2022/01/23 01:48:56;;;;;;;2.95;1.90;;;16.00;98.30;;;;;;2015745;28;20153;-73
2022/01/23 01:49:55;;;;;;;1.95;1.45;;;16.00;98.40;;;;;;2013424;28;20186;-74
2022/01/23 01:50:55;;;;;;;1.30;1.20;;;16.00;98.40;;;;;;2013542;28;20190;-74
2022/01/23 01:51:56;;;;;;;2.47;1.40;;;16.00;98.30;;;;;;2013196;28;20656;-74
2022/01/23 01:52:54;;;;;;;3.15;1.25;;;16.00;98.40;;;;;;2013473;28;20249;-74
2022/01/23 01:53:57;;;;;;;1.40;1.10;;;16.00;98.30;;;;;;2013988;28;20204;-73
2022/01/23 01:55:03;;;;;;;1.45;1.35;;;16.00;98.30;;;;;;2017066;28;20149;-74
2022/01/23 01:56:05;;;;;;;1.52;1.15;;;15.90;98.30;;;;;;2014104;28;20153;-74
2022/01/23 01:57:10;;;;;;;1.90;1.30;;;15.80;98.30;;;;;;2013268;28;20165;-74
2022/01/23 01:58:32;;;;;;;1.80;1.40;;;15.90;98.40;;;;;;2012645;28;20168;-73
2022/01/23 02:00:47;;;;;;;1.30;1.20;;;15.90;98.40;;;;;;2012560;28;20157;-73
2022/01/23 02:08:58;;;;;;;1.80;1.27;;;15.90;98.50;;;;;;2015366;28;20170;-74
2022/01/23 02:09:56;;;;;;;1.50;1.20;;;16.00;98.40;;;;;;2012307;28;20414;-74
2022/01/23 02:11:10;;;;;;;2.90;1.30;;;16.00;98.50;;;;;;2012470;28;20172;-73
2022/01/23 02:13:44;;;;;;;2.45;1.48;;;16.00;98.40;;;;;;2012640;28;20160;-74
2022/01/23 02:15:45;;;;;;;2.20;1.40;;;16.00;98.40;;;;;;2012600;28;20141;-74
2022/01/23 02:16:30;;;;;;;1.35;1.25;;;16.00;98.40;;;;;;2004921;28;20267;-73
2022/01/23 02:55:23;;;;;;;2.10;1.80;;;16.00;98.60;;;;;;2022989;28;20161;-74
2022/01/23 02:56:33;;;;;;;1.58;1.27;;;16.00;98.50;;;;;;2022295;28;20216;-75
2022/01/23 02:57:51;;;;;;;1.60;1.20;;;15.90;98.40;;;;;;2019281;28;20165;-74
2022/01/23 02:58:59;;;;;;;2.25;1.42;;;16.00;98.60;;;;;;2013644;28;20236;-75
2022/01/23 02:59:57;;;;;;;3.15;1.15;;;16.00;98.50;;;;;;2013526;28;20264;-74
2022/01/23 03:01:10;;;;;;;1.40;1.23;;;16.00;98.60;;;;;;2013017;28;20588;-74
2022/01/23 03:02:13;;;;;;;1.58;1.35;;;16.00;98.60;;;;;;2013185;28;20212;-74
2022/01/23 03:03:21;;;;;;;1.33;1.23;;;16.00;98.60;;;;;;2013148;28;20161;-75
2022/01/23 03:04:23;;;;;;;1.38;1.20;;;16.00;98.80;;;;;;2013247;28;20153;-75
2022/01/23 03:05:40;;;;;;;1.15;1.05;;;15.90;98.50;;;;;;2012870;28;20177;-74
2022/01/23 03:08:03;;;;;;;1.95;1.27;;;15.90;98.70;;;;;;2013233;28;20168;-74
2022/01/23 03:10:18;;;;;;;2.10;1.20;;;15.90;98.60;;;;;;2013530;28;20164;-75
2022/01/23 03:11:44;;;;;;;1.60;1.05;;;15.90;98.60;;;;;;2013586;28;20164;-74
2022/01/23 03:13:27;;;;;;;2.90;0.90;;;16.00;98.60;;;;;;2013264;28;20172;-74
2022/01/23 03:14:43;;;;;;;2.72;1.50;;;16.00;98.60;;;;;;2013422;28;20184;-74
2022/01/23 03:24:20;;;;;;;2.13;1.15;;;15.90;98.50;;;;;;2013581;28;20560;-74
2022/01/23 03:25:56;;;;;;;2.40;1.30;;;15.90;98.50;;;;;;2013374;28;20226;-74
2022/01/23 03:26:58;;;;;;;1.70;1.35;;;15.90;98.40;;;;;;2013202;28;20197;-74
2022/01/23 03:29:25;;;;;;;1.63;1.23;;;15.90;98.40;;;;;;2004721;28;20281;-74
2022/01/23 03:30:35;;;;;;;1.40;1.30;;;15.90;98.40;;;;;;2012735;28;20635;-75
2022/01/23 03:31:44;;;;;;;1.40;1.25;;;15.90;98.40;;;;;;2012904;28;20545;-75
2022/01/23 03:32:48;;;;;;;1.60;1.50;;;15.80;98.30;;;;;;2013319;28;20181;-75
2022/01/23 03:33:47;;;;;;;2.47;1.65;;;15.90;98.40;;;;;;2012873;28;20149;-74
2022/01/23 03:34:47;;;;;;;1.40;1.30;;;15.80;98.30;;;;;;2012791;28;20227;-74
2022/01/23 03:35:45;;;;;;;2.50;1.90;;;15.80;98.30;;;;;;2013148;28;20411;-74
2022/01/23 03:36:44;;;;;;;1.40;1.30;;;15.80;98.20;;;;;;2013217;28;20192;-75
2022/01/23 03:37:45;;;;;;;2.67;1.60;;;15.90;98.40;;;;;;2013255;28;20644;-75
2022/01/23 03:38:44;;;;;;;2.10;1.73;;;15.80;98.40;;;;;;2013289;28;20890;-74
2022/01/23 03:39:42;;;;;;;2.43;1.50;;;15.80;98.40;;;;;;2013159;28;20280;-74
2022/01/23 03:40:41;;;;;;;1.57;1.20;;;15.80;98.50;;;;;;2012581;28;20407;-75
2022/01/23 03:41:42;;;;;;;3.43;1.37;;;15.80;98.50;;;;;;2012997;28;20177;-75
2022/01/23 03:42:44;;;;;;;1.80;1.48;;;15.90;98.70;;;;;;2013271;28;20180;-75
2022/01/23 03:43:44;;;;;;;1.40;1.27;;;15.80;98.50;;;;;;2013368;28;20247;-75
2022/01/23 03:44:55;;;;;;;2.67;1.77;;;15.80;98.60;;;;;;2013265;28;20172;-75
2022/01/23 03:46:20;;;;;;;2.08;1.65;;;15.80;98.50;;;;;;2012648;28;20180;-75
2022/01/23 03:47:33;;;;;;;3.40;1.75;;;15.90;98.50;;;;;;2012882;28;20184;-75
2022/01/23 03:49:33;;;;;;;2.70;1.73;;;15.90;98.50;;;;;;2013267;28;20616;-74
2022/01/23 03:50:35;;;;;;;1.55;1.23;;;15.90;98.60;;;;;;2013657;28;20165;-74
2022/01/23 03:51:35;;;;;;;3.23;1.30;;;15.90;98.60;;;;;;2013712;28;20631;-75
2022/01/23 03:52:35;;;;;;;1.50;1.40;;;15.90;98.60;;;;;;2013581;28;20196;-75
2022/01/23 03:53:34;;;;;;;1.40;1.13;;;15.90;98.70;;;;;;2013548;28;20238;-74
2022/01/23 03:54:34;;;;;;;1.30;1.20;;;15.90;98.60;;;;;;2013315;28;20180;-74
2022/01/23 03:55:32;;;;;;;1.50;1.17;;;15.90;98.60;;;;;;2004588;28;20307;-74
2022/01/23 03:56:32;;;;;;;1.40;1.30;;;15.90;98.60;;;;;;2004137;28;20229;-73
2022/01/23 03:57:31;;;;;;;2.22;1.40;;;15.90;98.60;;;;;;2015341;28;20411;-74
2022/01/23 03:58:30;;;;;;;1.63;1.10;;;15.90;98.60;;;;;;2021089;28;20419;-75
2022/01/23 03:59:31;;;;;;;1.63;1.10;;;15.90;98.60;;;;;;2021669;28;20192;-74
2022/01/23 04:00:31;;;;;;;1.45;1.30;;;15.90;98.50;;;;;;2021709;28;20156;-73
2022/01/23 04:01:30;;;;;;;3.10;1.38;;;15.90;98.60;;;;;;2021905;28;20188;-74
2022/01/23 04:02:30;;;;;;;2.37;1.50;;;16.00;98.60;;;;;;2022109;28;20180;-75
2022/01/23 04:03:32;;;;;;;1.30;1.20;;;16.00;98.60;;;;;;2021986;28;20407;-74
2022/01/23 04:05:36;;;;;;;3.03;1.38;;;16.00;98.60;;;;;;2021909;28;20153;-75
2022/01/23 04:06:34;;;;;;;1.40;1.17;;;16.00;98.60;;;;;;2021387;28;20184;-74
2022/01/23 04:07:35;;;;;;;1.43;1.27;;;16.00;98.60;;;;;;2021783;28;20653;-75
2022/01/23 04:08:33;;;;;;;1.20;1.10;;;16.00;98.50;;;;;;2021545;28;20160;-74
2022/01/23 04:09:32;;;;;;;1.17;1.07;;;16.00;98.60;;;;;;2021414;28;20185;-74
2022/01/23 04:10:31;;;;;;;1.50;1.10;;;16.00;98.50;;;;;;2021975;28;20199;-74
2022/01/23 04:11:29;;;;;;;1.57;1.47;;;16.00;98.40;;;;;;2022322;28;20232;-74
2022/01/23 04:14:02;;;;;;;2.22;1.45;;;16.00;98.40;;;;;;2022073;28;20145;-73
2022/01/23 04:15:18;;;;;;;2.03;1.23;;;16.00;98.50;;;;;;2021333;28;20180;-74
2022/01/23 04:46:25;;;;;;;1.35;1.25;;;16.10;98.50;;;;;;2022053;28;20157;-74
2022/01/23 04:59:32;;;;;;;1.60;1.13;;;16.10;98.50;;;;;;2022044;28;20145;-74
2022/01/23 04:59:34;;;;;;;1.00;0.93;;;16.10;98.60;;;;;;2021867;28;20157;-73
2022/01/23 04:59:40;;;;;;;1.58;1.10;;;16.10;98.80;;;;;;2022122;28;20327;-74
2022/01/23 05:01:02;;;;;;;1.80;1.00;;;16.10;98.70;;;;;;2022129;28;20195;-74
2022/01/23 05:02:27;;;;;;;1.23;1.00;;;16.10;98.70;;;;;;2021907;28;20148;-75
2022/01/23 05:04:41;;;;;;;1.58;0.90;;;16.10;98.60;;;;;;2022223;28;20160;-74
2022/01/23 05:05:40;;;;;;;1.10;1.00;;;16.20;98.70;;;;;;2022152;28;20136;-75
2022/01/23 05:06:47;;;;;;;1.23;1.13;;;16.10;98.60;;;;;;2022053;28;20176;-74
2022/01/23 05:07:47;;;;;;;2.00;1.30;;;16.10;98.70;;;;;;2021974;28;20140;-74
2022/01/23 05:08:45;;;;;;;1.77;1.17;;;16.20;98.60;;;;;;2021751;28;20141;-74
2022/01/23 05:09:44;;;;;;;1.80;1.10;;;16.10;98.60;;;;;;2021659;28;20180;-74
2022/01/23 05:10:42;;;;;;;3.27;1.47;;;16.10;98.60;;;;;;2022207;28;20165;-74
2022/01/23 05:11:49;;;;;;;1.10;1.00;;;16.10;98.70;;;;;;2022168;28;20160;-74
2022/01/23 05:12:47;;;;;;;2.08;1.13;;;16.10;98.70;;;;;;2022196;28;20163;-74
2022/01/23 05:13:47;;;;;;;2.20;1.13;;;16.10;98.70;;;;;;2021693;28;20176;-74
2022/01/23 05:14:46;;;;;;;1.20;1.10;;;16.10;98.60;;;;;;2021659;28;20246;-74
2022/01/23 05:15:45;;;;;;;1.65;1.20;;;16.10;98.70;;;;;;2021900;28;20162;-73
2022/01/23 05:16:44;;;;;;;1.00;0.90;;;16.20;98.70;;;;;;2021971;28;20233;-74
2022/01/23 05:17:42;;;;;;;1.37;1.10;;;16.20;98.70;;;;;;2019046;28;20710;-74
2022/01/23 05:18:41;;;;;;;1.43;0.80;;;16.20;98.70;;;;;;2020614;28;20258;-74
2022/01/23 05:19:41;;;;;;;1.57;1.27;;;16.20;98.60;;;;;;2021651;28;20234;-75
2022/01/23 05:20:41;;;;;;;2.75;1.42;;;16.20;98.70;;;;;;2022026;28;20407;-74
2022/01/23 05:22:50;;;;;;;1.00;0.90;;;16.20;98.70;;;;;;2021757;28;20165;-74
2022/01/23 05:23:49;;;;;;;1.23;1.13;;;16.20;98.70;;;;;;2022089;28;20153;-74
2022/01/23 05:25:08;;;;;;;1.10;1.00;;;16.20;98.70;;;;;;2021683;28;20172;-74
2022/01/23 05:26:06;;;;;;;1.33;0.93;;;16.20;98.70;;;;;;2021729;28;20165;-74
2022/01/23 05:27:07;;;;;;;1.87;1.17;;;16.20;98.70;;;;;;2021739;28;20194;-74
2022/01/23 05:28:07;;;;;;;2.20;1.40;;;16.20;98.80;;;;;;2021918;28;20200;-74
2022/01/23 05:29:06;;;;;;;1.20;1.10;;;16.20;98.80;;;;;;2022035;28;20216;-75
2022/01/23 05:30:05;;;;;;;1.97;1.10;;;16.20;98.70;;;;;;2021785;28;20153;-74
2022/01/23 05:31:05;;;;;;;1.20;1.05;;;16.20;98.70;;;;;;2021955;28;20180;-75
2022/01/23 05:32:06;;;;;;;1.52;1.15;;;16.10;98.70;;;;;;2021894;28;20195;-74
2022/01/23 05:33:05;;;;;;;2.20;1.00;;;16.20;98.70;;;;;;2020908;28;20200;-75
2022/01/23 05:34:05;;;;;;;1.20;1.00;;;16.10;98.80;;;;;;2016994;28;20180;-75
2022/01/23 05:35:05;;;;;;;2.38;1.33;;;16.20;98.70;;;;;;2016909;28;20181;-75
2022/01/23 05:36:05;;;;;;;1.70;1.15;;;16.20;98.80;;;;;;2015791;28;20176;-74
2022/01/23 05:37:04;;;;;;;1.20;1.10;;;16.20;98.80;;;;;;2015408;28;20180;-75
2022/01/23 05:38:02;;;;;;;1.00;0.90;;;16.20;98.80;;;;;;2018973;28;20172;-74
2022/01/23 05:39:02;;;;;;;0.93;0.90;;;16.20;98.70;;;;;;2019142;28;20177;-74
2022/01/23 05:40:01;;;;;;;1.42;0.80;;;16.20;98.80;;;;;;2020536;28;20168;-74
2022/01/23 05:41:01;;;;;;;1.37;1.20;;;16.20;98.80;;;;;;2020726;28;20160;-74
2022/01/23 05:42:07;;;;;;;1.50;1.20;;;16.10;98.80;;;;;;2020046;28;20176;-74
2022/01/23 05:43:06;;;;;;;1.20;1.10;;;16.10;98.70;;;;;;2013287;28;20165;-74
2022/01/23 05:44:05;;;;;;;1.00;0.90;;;16.10;98.70;;;;;;2021192;28;20187;-74
2022/01/23 05:45:04;;;;;;;7.80;1.30;;;16.10;98.70;;;;;;2021453;28;20204;-74
2022/01/23 05:46:02;;;;;;;1.10;1.00;;;16.10;98.70;;;;;;2020718;28;20234;-74
2022/01/23 05:47:01;;;;;;;1.40;1.00;;;16.10;98.70;;;;;;2021166;28;20455;-74
2022/01/23 05:48:00;;;;;;;1.20;1.07;;;16.10;98.80;;;;;;2021708;28;20175;-73
2022/01/23 05:48:59;;;;;;;1.13;1.00;;;16.10;98.80;;;;;;2021725;28;20182;-73
2022/01/23 05:49:57;;;;;;;2.47;1.00;;;16.10;98.90;;;;;;2021801;28;20594;-74
2022/01/23 05:50:55;;;;;;;1.10;1.00;;;16.10;98.80;;;;;;2020685;28;20200;-74
2022/01/23 05:51:54;;;;;;;2.40;0.90;;;16.10;98.80;;;;;;2021636;28;20180;-74
2022/01/23 05:52:53;;;;;;;1.90;1.07;;;16.10;98.90;;;;;;2021681;28;20223;-74
2022/01/23 05:53:51;;;;;;;1.33;1.10;;;16.20;98.90;;;;;;2021579;28;20240;-74
2022/01/23 05:54:50;;;;;;;1.57;1.23;;;16.10;98.90;;;;;;2021290;28;20160;-74
2022/01/23 05:55:48;;;;;;;1.00;0.90;;;16.10;98.70;;;;;;2021510;28;20204;-74
2022/01/23 05:56:47;;;;;;;1.70;1.00;;;16.10;98.80;;;;;;2021333;28;20216;-74
2022/01/23 05:57:46;;;;;;;1.10;1.00;;;16.10;98.90;;;;;;2021774;28;20183;-74
2022/01/23 05:58:44;;;;;;;2.93;1.30;;;16.10;98.80;;;;;;2021860;28;20172;-74
2022/01/23 05:59:43;;;;;;;1.30;1.00;;;16.10;99.00;;;;;;2021873;28;20204;-75
2022/01/23 06:00:41;;;;;;;1.20;1.00;;;16.20;99.10;;;;;;2021945;28;20232;-74
2022/01/23 06:01:40;;;;;;;3.13;0.97;;;16.20;99.00;;;;;;2021584;28;20196;-75
2022/01/23 06:02:39;;;;;;;1.50;1.10;;;16.20;99.00;;;;;;2021378;28;20195;-74
2022/01/23 06:03:37;;;;;;;1.20;1.10;;;16.20;98.90;;;;;;2021959;28;20196;-74
2022/01/23 06:04:36;;;;;;;1.00;0.90;;;16.20;98.80;;;;;;2023308;28;20160;-74
2022/01/23 06:05:34;;;;;;;1.20;0.93;;;16.10;98.90;;;;;;2023539;28;20171;-73
2022/01/23 06:06:32;;;;;;;3.17;1.07;;;16.10;98.90;;;;;;2023101;28;20184;-74
2022/01/23 06:07:31;;;;;;;1.10;1.00;;;16.10;98.90;;;;;;2023468;28;20187;-74
2022/01/23 06:08:31;;;;;;;1.30;1.20;;;16.10;99.00;;;;;;2023339;28;20160;-74
2022/01/23 06:09:31;;;;;;;1.20;1.10;;;16.10;99.00;;;;;;2023353;28;20184;-74
2022/01/23 06:10:46;;;;;;;2.50;1.30;;;;;;;;;;2023328;28;20179;-75
2022/01/23 06:11:44;;;;;;;2.55;1.30;;;;;;;;;;2022577;28;20164;-74
2022/01/23 06:12:43;;;;;;;2.00;1.13;;;;;;;;;;2023171;28;20164;-74
2022/01/23 06:13:42;;;;;;;1.23;1.03;;;;;;;;;;2023379;28;20415;-75
2022/01/23 06:14:41;;;;;;;1.73;1.17;;;16.00;98.70;;;;;;2023461;28;20402;-74
2022/01/23 06:15:40;;;;;;;1.00;0.90;;;;;;;;;;2023337;28;20422;-75
2022/01/23 06:16:39;;;;;;;1.20;1.07;;;;;;;;;;2023124;28;20195;-75
2022/01/23 06:17:37;;;;;;;3.10;1.00;;;16.00;98.70;;;;;;2023360;28;20555;-75
2022/01/23 06:18:40;;;;;;;1.07;0.90;;;;;;;;;;2023554;28;20276;-75
2022/01/23 06:19:40;;;;;;;1.60;1.02;;;;;;;;;;2023424;28;20198;-75
2022/01/23 06:20:39;;;;;;;3.25;1.35;;;;;;;;;;2023568;28;20261;-75
2022/01/23 06:21:39;;;;;;;1.50;1.30;;;;;;;;;;2023377;28;20230;-75
2022/01/23 06:22:38;;;;;;;1.45;1.30;;;16.00;98.70;;;;;;2023515;28;20165;-75
2022/01/23 06:23:36;;;;;;;1.50;1.10;;;;;;;;;;2023159;28;20203;-75
2022/01/23 06:24:44;;;;;;;1.50;1.07;;;;;;;;;;2015085;28;20415;-74
2022/01/23 06:25:44;;;;;;;1.95;1.25;;;16.00;98.90;;;;;;2023131;28;20401;-73
2022/01/23 06:26:48;;;;;;;0.95;0.90;;;;;;;;;;2023417;28;20193;-74
2022/01/23 06:27:47;;;;;;;1.30;1.02;;;;;;;;;;2023555;28;20148;-73
2022/01/23 06:29:03;;;;;;;1.48;1.10;;;;;;;;;;2023322;28;20188;-75
2022/01/23 06:30:02;;;;;;;1.55;1.13;;;;;;;;;;2023313;28;20156;-74
2022/01/23 06:31:01;;;;;;;2.15;0.88;;;;;;;;;;2023481;28;20160;-74
2022/01/23 06:32:02;;;;;;;2.33;1.23;;;;;;;;;;2023591;28;20165;-75
2022/01/23 06:33:01;;;;;;;3.67;1.20;;;;;;;;;;2022693;28;20391;-74
2022/01/23 06:34:00;;;;;;;1.63;1.00;;;;;;;;;;2023160;28;20183;-74
2022/01/23 06:34:59;;;;;;;1.60;1.13;;;;;;;;;;2022497;28;20422;-75
2022/01/23 06:35:58;;;;;;;1.40;1.00;;;;;;;;;;2014313;28;20172;-74
2022/01/23 06:36:58;;;;;;;1.27;1.00;;;;;;;;;;2020051;28;20431;-75
2022/01/23 06:37:57;;;;;;;1.20;0.93;;;;;;;;;;2023006;28;20395;-74
2022/01/23 06:38:56;;;;;;;2.10;1.23;;;;;;;;;;2023416;28;20191;-75
2022/01/23 06:39:55;;;;;;;1.30;0.90;;;;;;;;;;2023285;28;20470;-74
2022/01/23 06:40:53;;;;;;;2.40;1.50;;;;;;;;;;2023246;28;20422;-75
2022/01/23 06:41:52;;;;;;;1.47;0.97;;;;;;;;;;2023390;28;20394;-75
2022/01/23 06:42:52;;;;;;;1.95;1.00;;;;;;;;;;2023072;28;20403;-74
2022/01/23 06:43:50;;;;;;;1.37;1.10;;;;;;;;;;2022924;28;20184;-75
2022/01/23 06:44:51;;;;;;;2.40;1.20;;;;;;;;;;2022672;28;20403;-74
2022/01/23 06:45:50;;;;;;;2.60;1.40;;;;;;;;;;2023242;28;20401;-76
2022/01/23 06:46:49;;;;;;;2.03;1.20;;;;;;;;;;2023195;28;20195;-75
2022/01/23 06:47:48;;;;;;;1.83;1.20;;;;;;;;;;2023349;28;20388;-75
2022/01/23 06:48:47;;;;;;;1.37;1.00;;;;;;;;;;2023142;28;20187;-74
2022/01/23 06:49:46;;;;;;;1.40;1.20;;;;;;;;;;2023453;28;20411;-74
2022/01/23 06:50:45;;;;;;;1.80;0.90;;;;;;;;;;2021665;28;20426;-75
2022/01/23 06:51:44;;;;;;;2.30;1.07;;;;;;;;;;2012160;28;20424;-75
2022/01/23 06:52:43;;;;;;;1.40;1.10;;;;;;;;;;2022241;28;20426;-74
2022/01/23 06:53:42;;;;;;;1.57;1.10;;;;;;;;;;2021581;28;20176;-75
2022/01/23 06:54:41;;;;;;;1.63;1.30;;;;;;;;;;2022027;28;20411;-74
2022/01/23 06:55:40;;;;;;;1.10;1.00;;;;;;;;;;2021056;28;20478;-74
2022/01/23 06:56:39;;;;;;;2.72;1.30;;;;;;;;;;2020500;28;20522;-74
2022/01/23 06:57:38;;;;;;;1.70;1.20;;;;;;;;;;2020727;28;20236;-75
2022/01/23 06:58:37;;;;;;;3.10;1.05;;;;;;;;;;2020414;28;20168;-75
2022/01/23 06:59:36;;;;;;;1.40;1.30;;;;;;;;;;2017268;28;20597;-76
2022/01/23 07:00:35;;;;;;;1.27;1.10;;;;;;;;;;2017149;28;20445;-75
2022/01/23 07:01:34;;;;;;;1.52;1.23;;;;;;;;;;2016302;28;20419;-75
2022/01/23 07:02:33;;;;;;;1.38;1.10;;;;;;;;;;2016118;28;20251;-76
2022/01/23 07:03:32;;;;;;;1.10;1.00;;;;;;;;;;2016178;28;20202;-74
2022/01/23 07:04:31;;;;;;;1.70;1.40;;;;;;;;;;2016686;28;20970;-75
2022/01/23 07:05:30;;;;;;;1.77;1.30;;;;;;;;;;2016594;28;20580;-76
2022/01/23 07:06:29;;;;;;;2.90;1.40;;;;;;;;;;2017730;28;20427;-76
2022/01/23 07:07:28;;;;;;;1.80;1.40;;;;;;;;;;2021953;28;20391;-75
2022/01/23 07:08:27;;;;;;;4.63;1.03;;;;;;;;;;2022516;28;20471;-74
2022/01/23 07:09:26;;;;;;;1.43;1.27;;;;;;;;;;2023010;28;20387;-75
2022/01/23 07:10:25;;;;;;;2.20;1.30;;;;;;;;;;2022765;28;20441;-74
2022/01/23 07:11:24;;;;;;;1.70;1.57;;;;;;;;;;2022202;28;20454;-76
2022/01/23 07:12:23;;;;;;;3.37;1.50;;;;;;;;;;2022337;28;20443;-75
2022/01/23 07:13:22;;;;;;;8.50;1.97;;;;;;;;;;2022909;28;20431;-77
2022/01/23 07:14:21;;;;;;;2.60;1.50;;;;;;;;;;2022258;28;20487;-76
2022/01/23 07:15:21;;;;;;;3.30;1.30;;;;;;;;;;2021435;28;20463;-76
2022/01/23 07:16:20;;;;;;;3.20;1.08;;;;;;;;;;2021208;28;20183;-75
2022/01/23 07:17:20;;;;;;;1.70;1.50;;;;;;;;;;2021796;28;20240;-76
2022/01/23 07:18:19;;;;;;;2.38;1.60;;;;;;;;;;2022394;28;20407;-76
2022/01/23 07:19:18;;;;;;;1.30;1.10;;;;;;;;;;2021878;28;20240;-76
2022/01/23 07:20:16;;;;;;;2.40;1.30;;;;;;;;;;2021241;28;20177;-77
2022/01/23 07:21:17;;;;;;;2.73;1.30;;;;;;;;;;2021430;28;20399;-76
2022/01/23 07:22:16;;;;;;;2.20;1.40;;;;;;;;;;2022183;28;20395;-76
2022/01/23 07:23:21;;;;;;;2.47;1.33;;;;;;;;;;2021027;28;20191;-76
2022/01/23 07:24:20;;;;;;;1.65;1.20;;;;;;;;;;2021968;28;20440;-75
2022/01/23 07:25:19;;;;;;;1.43;1.10;;;;;;;;;;2022616;28;20191;-75
2022/01/23 07:26:19;;;;;;;3.10;1.70;;;;;;;;;;2022361;28;20414;-75
2022/01/23 07:27:21;;;;;;;4.57;1.50;;;;;;;;;;2022915;28;20404;-76
2022/01/23 07:28:23;;;;;;;3.38;1.08;;;;;;;;;;2021203;28;20177;-76
2022/01/23 07:29:22;;;;;;;2.10;1.35;;;;;;;;;;2014645;28;20168;-75
2022/01/23 07:32:34;;;;;;;4.22;1.20;;;;;;;;;;2021956;28;20171;-76
2022/01/23 07:33:35;;;;;;;2.10;1.47;;;;;;;;;;2022465;28;20176;-76
2022/01/23 07:34:34;;;;;;;1.80;1.23;;;;;;;;;;2022741;28;20410;-75
2022/01/23 07:35:33;;;;;;;6.30;1.20;;;;;;;;;;2022448;28;20172;-77
2022/01/23 07:36:32;;;;;;;2.40;1.27;;;;;;;;;;2021133;28;20224;-76
2022/01/23 07:37:31;;;;;;;1.88;1.50;;;;;;;;;;2021403;28;20491;-76
2022/01/23 07:38:31;;;;;;;1.20;0.80;;;;;;;;;;2022426;28;20165;-76
2022/01/23 07:39:30;;;;;;;1.20;1.10;;;;;;;;;;2022554;28;20463;-75
2022/01/23 07:40:29;;;;;;;1.43;1.20;;;;;;;;;;2022851;28;20188;-76
2022/01/23 07:41:28;;;;;;;1.93;1.10;;;;;;;;;;2021975;28;20407;-74
2022/01/23 07:42:27;;;;;;;1.40;1.17;;;;;;;;;;2022648;28;20433;-75
2022/01/23 07:43:26;;;;;;;1.73;1.10;;;;;;;;;;2020906;28;20184;-75
2022/01/23 07:44:25;;;;;;;2.00;1.30;;;;;;;;;;2022881;28;20395;-75
2022/01/23 07:45:24;;;;;;;1.30;1.10;;;;;;;;;;2022855;28;20418;-74
2022/01/23 07:46:23;;;;;;;1.93;1.50;;;;;;;;;;2022376;28;20425;-75
2022/01/23 07:47:22;;;;;;;2.63;0.97;;;;;;;;;;2014489;28;20404;-75
2022/01/23 07:48:21;;;;;;;1.90;1.35;;;;;;;;;;2021972;28;20487;-74
2022/01/23 07:49:20;;;;;;;3.73;1.40;;;;;;;;;;2030351;28;20246;-75
2022/01/23 07:50:19;;;;;;;2.55;1.30;;;;;;;;;;2022921;28;20398;-75
2022/01/23 07:51:18;;;;;;;4.20;2.13;;;;;;;;;;2020757;28;20176;-74